createdAt,value
2023-05-02T00:00:10.354Z,29.22
2023-05-02T00:01:10.463Z,29.22
2023-05-02T00:02:10.488Z,29.25
2023-05-02T00:03:10.664Z,29.23
2023-05-02T00:04:10.781Z,29.21
2023-05-02T00:05:10.656Z,29.21
2023-05-02T00:06:10.824Z,29.18
2023-05-02T00:07:10.760Z,29.22
2023-05-02T00:08:10.814Z,29.25
2023-05-02T00:09:10.894Z,29.21
2023-05-02T00:10:10.890Z,29.23
2023-05-02T00:11:10.943Z,29.30
2023-05-02T00:12:11.008Z,29.26
2023-05-02T00:13:11.033Z,29.26
2023-05-02T00:14:11.327Z,29.23
2023-05-02T00:15:11.139Z,29.25
2023-05-02T00:16:11.168Z,29.21
2023-05-02T00:17:11.221Z,29.27
2023-05-02T00:18:11.308Z,29.23
2023-05-02T00:19:11.340Z,29.26
2023-05-02T00:20:11.337Z,29.25
2023-05-02T00:21:11.430Z,29.21
2023-05-02T00:22:11.423Z,29.28
2023-05-02T00:23:11.466Z,29.23
2023-05-02T00:24:11.499Z,29.25
2023-05-02T00:25:11.502Z,29.25
2023-05-02T00:26:11.571Z,29.26
2023-05-02T00:27:11.623Z,29.30
2023-05-02T00:28:11.646Z,29.29
2023-05-02T00:29:11.733Z,29.27
2023-05-02T00:30:11.764Z,29.26
2023-05-02T00:31:11.917Z,29.24
2023-05-02T00:32:11.861Z,29.26
2023-05-02T00:33:11.968Z,29.26
2023-05-02T00:34:11.916Z,29.29
2023-05-02T00:35:11.979Z,29.26
2023-05-02T00:36:12.017Z,29.27
2023-05-02T00:37:12.051Z,29.23
2023-05-02T00:38:12.076Z,29.30
2023-05-02T00:39:12.119Z,29.26
2023-05-02T00:40:12.196Z,29.28
2023-05-02T00:41:12.244Z,29.27
2023-05-02T00:42:12.340Z,29.24
2023-05-02T00:43:12.440Z,29.26
2023-05-02T00:44:12.411Z,29.28
2023-05-02T00:45:12.432Z,29.30
2023-05-02T00:46:12.661Z,29.28
2023-05-02T00:47:12.545Z,29.33
2023-05-02T00:48:12.683Z,29.31
2023-05-02T00:49:12.642Z,29.30
2023-05-02T00:50:12.683Z,29.27
2023-05-02T00:51:12.713Z,29.31
2023-05-02T00:52:12.745Z,29.31
2023-05-02T00:53:12.818Z,29.31
2023-05-02T00:54:12.846Z,29.31
2023-05-02T00:55:12.905Z,29.28
2023-05-02T00:56:12.942Z,29.28
2023-05-02T00:57:13.028Z,29.31
2023-05-02T00:58:13.027Z,29.27
2023-05-02T00:59:13.121Z,29.30
2023-05-02T01:00:13.201Z,29.28
2023-05-02T01:01:13.213Z,29.30
2023-05-02T01:02:13.382Z,29.27
2023-05-02T01:03:13.385Z,29.31
2023-05-02T01:04:13.540Z,29.30
2023-05-02T01:05:13.428Z,29.26
2023-05-02T01:06:13.467Z,29.24
2023-05-02T01:07:13.494Z,29.32
2023-05-02T01:08:13.508Z,29.28
2023-05-02T01:09:13.525Z,29.30
2023-05-02T01:10:13.537Z,29.31
2023-05-02T01:11:13.549Z,29.31
2023-05-02T01:12:13.638Z,29.31
2023-05-02T01:13:13.643Z,29.31
2023-05-02T01:14:13.650Z,29.26
2023-05-02T01:15:13.708Z,29.30
2023-05-02T01:16:13.808Z,29.28
2023-05-02T01:17:13.762Z,29.35
2023-05-02T01:18:13.846Z,29.29
2023-05-02T01:19:13.841Z,29.31
2023-05-02T01:20:13.828Z,29.32
2023-05-02T01:21:13.908Z,29.31
2023-05-02T01:22:13.902Z,29.31
2023-05-02T01:23:13.909Z,29.31
2023-05-02T01:24:13.953Z,29.34
2023-05-02T01:25:13.996Z,29.35
2023-05-02T01:26:13.962Z,29.32
2023-05-02T01:27:13.950Z,29.35
2023-05-02T01:28:13.978Z,29.37
2023-05-02T01:29:14.004Z,29.34
2023-05-02T01:30:13.992Z,29.35
2023-05-02T01:31:14.075Z,29.32
2023-05-02T01:32:14.073Z,29.31
2023-05-02T01:33:14.090Z,29.34
2023-05-02T01:34:14.141Z,29.39
2023-05-02T01:35:14.174Z,29.31
2023-05-02T01:36:14.149Z,29.34
2023-05-02T01:37:14.189Z,29.36
2023-05-02T01:38:14.219Z,29.32
2023-05-02T01:39:14.240Z,29.34
2023-05-02T01:40:14.239Z,29.32
2023-05-02T01:41:14.354Z,29.34
2023-05-02T01:42:14.302Z,29.35
2023-05-02T01:43:14.305Z,29.29
2023-05-02T01:44:14.313Z,29.36
2023-05-02T01:45:14.302Z,29.37
2023-05-02T01:46:14.395Z,29.31
2023-05-02T01:47:14.348Z,29.32
2023-05-02T01:48:14.287Z,29.34
2023-05-02T01:49:14.302Z,29.36
2023-05-02T01:50:14.312Z,29.34
2023-05-02T01:51:14.316Z,29.39
2023-05-02T01:52:14.249Z,29.33
2023-05-02T01:53:14.261Z,29.35
2023-05-02T01:54:14.281Z,29.29
2023-05-02T01:55:14.337Z,29.37
2023-05-02T01:56:14.290Z,29.37
2023-05-02T01:57:14.354Z,29.39
2023-05-02T01:58:14.284Z,29.37
2023-05-02T01:59:14.297Z,29.35
2023-05-02T02:00:14.326Z,29.34
2023-05-02T02:01:14.352Z,29.39
2023-05-02T02:02:14.291Z,29.37
2023-05-02T02:03:14.387Z,29.34
2023-05-02T02:04:14.333Z,29.36
2023-05-02T02:05:14.301Z,29.34
2023-05-02T02:06:14.370Z,29.39
2023-05-02T02:07:14.319Z,29.40
2023-05-02T02:08:14.319Z,29.32
2023-05-02T02:09:14.364Z,29.37
2023-05-02T02:10:14.348Z,29.39
2023-05-02T02:11:14.312Z,29.37
2023-05-02T02:12:14.289Z,29.37
2023-05-02T02:13:14.307Z,29.36
2023-05-02T02:14:14.309Z,29.33
2023-05-02T02:15:14.306Z,29.36
2023-05-02T02:16:14.344Z,29.39
2023-05-02T02:17:14.322Z,29.41
2023-05-02T02:18:14.480Z,29.37
2023-05-02T02:19:14.302Z,29.44
2023-05-02T02:20:14.305Z,29.43
2023-05-02T02:21:14.312Z,29.40
2023-05-02T02:22:14.327Z,29.39
2023-05-02T02:23:14.330Z,29.36
2023-05-02T02:24:14.269Z,29.39
2023-05-02T02:25:14.297Z,29.37
2023-05-02T02:26:14.290Z,29.37
2023-05-02T02:27:14.296Z,29.39
2023-05-02T02:28:14.290Z,29.36
2023-05-02T02:29:14.305Z,29.45
2023-05-02T02:30:14.324Z,29.37
2023-05-02T02:31:14.391Z,29.37
2023-05-02T02:32:14.323Z,29.41
2023-05-02T02:33:14.354Z,29.41
2023-05-02T02:34:14.421Z,29.44
2023-05-02T02:35:14.307Z,29.43
2023-05-02T02:36:14.322Z,29.35
2023-05-02T02:37:14.361Z,29.41
2023-05-02T02:38:14.337Z,29.37
2023-05-02T02:39:14.350Z,29.40
2023-05-02T02:40:14.349Z,29.44
2023-05-02T02:41:14.298Z,29.40
2023-05-02T02:42:14.294Z,29.38
2023-05-02T02:43:14.359Z,29.39
2023-05-02T02:44:14.368Z,29.37
2023-05-02T02:45:14.375Z,29.34
2023-05-02T02:46:14.346Z,29.34
2023-05-02T02:47:14.331Z,29.44
2023-05-02T02:48:14.385Z,29.40
2023-05-02T02:49:14.380Z,29.40
2023-05-02T02:50:14.339Z,29.39
2023-05-02T02:51:14.311Z,29.40
2023-05-02T02:52:14.363Z,29.38
2023-05-02T02:53:14.379Z,29.38
2023-05-02T02:54:25.886Z,29.45
2023-05-02T02:55:15.366Z,29.40
2023-05-02T02:56:14.489Z,29.41
2023-05-02T02:57:14.361Z,29.41
2023-05-02T02:58:14.301Z,29.41
2023-05-02T02:59:14.298Z,29.39
2023-05-02T03:00:14.301Z,29.44
2023-05-02T03:01:14.314Z,29.41
2023-05-02T03:02:14.287Z,29.48
2023-05-02T03:03:14.398Z,29.45
2023-05-02T03:04:14.414Z,29.40
2023-05-02T03:05:14.240Z,29.44
2023-05-02T03:06:14.307Z,29.44
2023-05-02T03:07:14.284Z,29.45
2023-05-02T03:08:14.219Z,29.41
2023-05-02T03:09:14.222Z,29.45
2023-05-02T03:10:14.228Z,29.38
2023-05-02T03:11:14.233Z,29.45
2023-05-02T03:12:14.203Z,29.39
2023-05-02T03:13:14.191Z,29.41
2023-05-02T03:14:14.210Z,29.43
2023-05-02T03:15:14.156Z,29.42
2023-05-02T03:16:14.235Z,29.43
2023-05-02T03:17:14.151Z,29.46
2023-05-02T03:18:14.209Z,29.44
2023-05-02T03:19:14.121Z,29.43
2023-05-02T03:20:14.142Z,29.42
2023-05-02T03:21:14.143Z,29.42
2023-05-02T03:22:14.111Z,29.48
2023-05-02T03:23:14.114Z,29.43
2023-05-02T03:24:14.164Z,29.42
2023-05-02T03:25:14.133Z,29.43
2023-05-02T03:26:14.095Z,29.45
2023-05-02T03:27:14.082Z,29.43
2023-05-02T03:28:14.087Z,29.49
2023-05-02T03:29:14.109Z,29.43
2023-05-02T03:30:14.101Z,29.48
2023-05-02T03:31:14.136Z,29.42
2023-05-02T03:32:14.166Z,29.49
2023-05-02T03:33:14.115Z,29.49
2023-05-02T03:34:14.055Z,29.43
2023-05-02T03:35:14.052Z,29.45
2023-05-02T03:36:14.034Z,29.46
2023-05-02T03:37:14.054Z,29.43
2023-05-02T03:38:14.069Z,29.46
2023-05-02T03:39:14.058Z,29.48
2023-05-02T03:40:14.078Z,29.46
2023-05-02T03:41:14.133Z,29.48
2023-05-02T03:42:14.092Z,29.46
2023-05-02T03:43:14.155Z,29.49
2023-05-02T03:44:14.162Z,29.50
2023-05-02T03:45:14.123Z,29.48
2023-05-02T03:46:14.224Z,29.47
2023-05-02T03:47:14.262Z,29.43
2023-05-02T03:48:14.256Z,29.48
2023-05-02T03:49:14.205Z,29.45
2023-05-02T03:50:14.268Z,29.49
2023-05-02T03:51:14.249Z,29.53
2023-05-02T03:52:14.265Z,29.46
2023-05-02T03:53:14.257Z,29.48
2023-05-02T03:54:14.257Z,29.50
2023-05-02T03:55:14.282Z,29.46
2023-05-02T03:56:14.284Z,29.53
2023-05-02T03:57:14.280Z,29.46
2023-05-02T03:58:14.292Z,29.47
2023-05-02T03:59:14.312Z,29.50
2023-05-02T04:00:14.325Z,29.46
2023-05-02T04:01:14.310Z,29.51
2023-05-02T04:02:14.447Z,29.44
2023-05-02T04:03:14.454Z,29.48
2023-05-02T04:04:14.427Z,29.44
2023-05-02T04:05:14.411Z,29.44
2023-05-02T04:06:14.476Z,29.39
2023-05-02T04:07:14.417Z,29.33
2023-05-02T04:08:14.429Z,29.36
2023-05-02T04:09:14.478Z,29.37
2023-05-02T04:10:14.438Z,29.34
2023-05-02T04:11:14.453Z,29.33
2023-05-02T04:12:14.495Z,29.33
2023-05-02T04:13:14.503Z,29.34
2023-05-02T04:14:14.511Z,29.34
2023-05-02T04:15:15.415Z,29.30
2023-05-02T04:16:14.568Z,29.27
2023-05-02T04:17:14.641Z,29.27
2023-05-02T04:18:14.652Z,29.31
2023-05-02T04:19:14.657Z,29.26
2023-05-02T04:20:14.653Z,29.26
2023-05-02T04:21:14.789Z,29.28
2023-05-02T04:22:14.696Z,29.28
2023-05-02T04:23:14.735Z,29.23
2023-05-02T04:24:14.794Z,29.28
2023-05-02T04:25:14.786Z,29.27
2023-05-02T04:26:14.850Z,29.29
2023-05-02T04:27:15.548Z,29.26
2023-05-02T04:28:14.875Z,29.26
2023-05-02T04:29:14.922Z,29.25
2023-05-02T04:30:14.919Z,29.19
2023-05-02T04:31:15.026Z,29.23
2023-05-02T04:32:14.993Z,29.28
2023-05-02T04:33:15.147Z,29.29
2023-05-02T04:34:15.059Z,29.29
2023-05-02T04:35:15.088Z,29.28
2023-05-02T04:36:15.132Z,29.33
2023-05-02T04:37:15.889Z,29.29
2023-05-02T04:38:15.204Z,29.32
2023-05-02T04:39:15.187Z,29.31
2023-05-02T04:40:15.202Z,29.28
2023-05-02T04:41:15.281Z,29.24
2023-05-02T04:42:15.268Z,29.28
2023-05-02T04:43:15.327Z,29.26
2023-05-02T04:44:15.353Z,29.25
2023-05-02T04:45:15.394Z,29.31
2023-05-02T04:46:15.453Z,29.23
2023-05-02T04:47:15.406Z,29.21
2023-05-02T04:48:15.434Z,29.25
2023-05-02T04:49:15.455Z,29.20
2023-05-02T04:50:15.476Z,29.25
2023-05-02T04:51:16.971Z,29.22
2023-05-02T04:52:15.501Z,29.24
2023-05-02T04:53:15.498Z,29.25
2023-05-02T04:54:15.518Z,29.29
2023-05-02T04:55:15.576Z,29.41
2023-05-02T04:56:15.571Z,29.44
2023-05-02T04:57:15.635Z,29.50
2023-05-02T04:58:15.679Z,29.60
2023-05-02T04:59:15.765Z,29.66
2023-05-02T05:00:15.765Z,29.72
2023-05-02T05:01:15.829Z,29.81
2023-05-02T05:02:16.001Z,29.86
2023-05-02T05:03:16.022Z,29.85
2023-05-02T05:04:16.159Z,29.95
2023-05-02T05:05:16.004Z,30.03
2023-05-02T05:06:16.113Z,30.09
2023-05-02T05:07:15.913Z,30.13
2023-05-02T05:08:19.869Z,30.16
2023-05-02T05:09:15.930Z,30.21
2023-05-02T05:10:15.919Z,30.35
2023-05-02T05:11:15.910Z,30.36
2023-05-02T05:12:15.953Z,30.44
2023-05-02T05:13:15.948Z,30.50
2023-05-02T05:14:15.911Z,30.52
2023-05-02T05:15:15.911Z,30.48
2023-05-02T05:16:15.935Z,30.54
2023-05-02T05:17:15.864Z,30.52
2023-05-02T05:18:16.015Z,30.45
2023-05-02T05:19:15.864Z,30.51
2023-05-02T05:20:15.839Z,30.45
2023-05-02T05:21:15.847Z,30.55
2023-05-02T05:22:15.857Z,30.59
2023-05-02T05:23:15.860Z,30.63
2023-05-02T05:24:15.869Z,30.69
2023-05-02T05:25:15.817Z,30.76
2023-05-02T05:26:15.839Z,30.81
2023-05-02T05:27:15.801Z,30.91
2023-05-02T05:28:15.810Z,30.97
2023-05-02T05:29:15.806Z,31.06
2023-05-02T05:30:15.804Z,31.03
2023-05-02T05:31:16.848Z,31.10
2023-05-02T05:32:15.836Z,31.66
2023-05-02T05:33:15.870Z,31.62
2023-05-02T05:34:15.863Z,32.09
2023-05-02T05:35:15.780Z,32.26
2023-05-02T05:36:15.747Z,31.82
2023-05-02T05:37:15.754Z,32.31
2023-05-02T05:38:15.767Z,32.67
2023-05-02T05:39:16.531Z,32.69
2023-05-02T05:40:15.738Z,32.67
2023-05-02T05:41:15.721Z,32.40
2023-05-02T05:42:15.724Z,32.66
2023-05-02T05:43:15.737Z,32.48
2023-05-02T05:44:15.701Z,32.55
2023-05-02T05:45:15.705Z,32.72
2023-05-02T05:46:15.705Z,32.76
2023-05-02T05:47:15.762Z,33.00
2023-05-02T05:48:15.678Z,33.02
2023-05-02T05:49:15.769Z,33.13
2023-05-02T05:50:15.772Z,33.02
2023-05-02T05:51:15.746Z,33.18
2023-05-02T05:52:15.752Z,33.24
2023-05-02T05:53:15.795Z,33.51
2023-05-02T05:54:15.828Z,33.47
2023-05-02T05:55:15.771Z,33.45
2023-05-02T05:56:15.791Z,33.38
2023-05-02T05:57:15.869Z,33.31
2023-05-02T05:58:15.924Z,33.44
2023-05-02T05:59:15.957Z,33.44
2023-05-02T06:00:15.952Z,33.38
2023-05-02T06:01:16.031Z,33.28
2023-05-02T06:02:16.083Z,33.22
2023-05-02T06:03:16.292Z,33.21
2023-05-02T06:04:16.207Z,33.29
2023-05-02T06:05:16.185Z,33.23
2023-05-02T06:06:16.288Z,33.29
2023-05-02T06:07:16.275Z,33.35
2023-05-02T06:08:16.317Z,33.42
2023-05-02T06:09:16.521Z,33.28
2023-05-02T06:10:16.495Z,33.24
2023-05-02T06:11:16.521Z,33.26
2023-05-02T06:12:16.428Z,33.82
2023-05-02T06:13:18.258Z,34.28
2023-05-02T06:14:16.463Z,33.80
2023-05-02T06:15:16.469Z,33.43
2023-05-02T06:16:16.503Z,33.01
2023-05-02T06:17:16.486Z,33.18
2023-05-02T06:18:17.002Z,33.24
2023-05-02T06:19:16.653Z,33.10
2023-05-02T06:20:18.139Z,33.18
2023-05-02T06:21:16.606Z,33.27
2023-05-02T06:22:16.629Z,33.45
2023-05-02T06:23:16.632Z,33.38
2023-05-02T06:24:16.635Z,33.37
2023-05-02T06:25:16.706Z,33.67
2023-05-02T06:26:16.728Z,33.46
2023-05-02T06:27:16.708Z,33.46
2023-05-02T06:28:16.724Z,33.38
2023-05-02T06:29:16.716Z,33.38
2023-05-02T06:30:16.727Z,33.44
2023-05-02T06:31:16.812Z,32.69
2023-05-02T06:32:16.786Z,32.38
2023-05-02T06:33:16.812Z,32.28
2023-05-02T06:34:16.859Z,32.34
2023-05-02T06:35:16.923Z,32.18
2023-05-02T06:36:16.982Z,32.51
2023-05-02T06:37:17.502Z,32.23
2023-05-02T06:38:17.454Z,32.49
2023-05-02T06:39:17.526Z,32.81
2023-05-02T06:40:17.570Z,32.50
2023-05-02T06:41:18.148Z,32.62
2023-05-02T06:42:17.469Z,32.50
2023-05-02T06:43:17.481Z,32.45
2023-05-02T06:44:17.084Z,32.69
2023-05-02T06:45:17.092Z,32.57
2023-05-02T06:46:17.130Z,32.84
2023-05-02T06:47:17.612Z,33.27
2023-05-02T06:48:17.119Z,33.06
2023-05-02T06:49:17.090Z,33.23
2023-05-02T06:50:17.119Z,33.16
2023-05-02T06:51:17.116Z,33.23
2023-05-02T06:52:17.143Z,33.30
2023-05-02T06:53:17.198Z,33.23
2023-05-02T06:54:17.208Z,33.31
2023-05-02T06:55:17.351Z,33.38
2023-05-02T06:56:17.319Z,33.25
2023-05-02T06:57:17.390Z,33.18
2023-05-02T06:58:17.439Z,33.13
2023-05-02T06:59:17.476Z,33.19
2023-05-02T07:00:17.577Z,32.88
2023-05-02T07:01:17.605Z,32.73
2023-05-02T07:02:17.616Z,32.59
2023-05-02T07:03:17.685Z,32.84
2023-05-02T07:04:17.759Z,33.12
2023-05-02T07:05:17.679Z,33.03
2023-05-02T07:06:17.774Z,33.01
2023-05-02T07:07:17.752Z,33.05
2023-05-02T07:08:18.027Z,33.03
2023-05-02T07:09:17.874Z,32.97
2023-05-02T07:10:17.959Z,33.06
2023-05-02T07:11:17.826Z,32.91
2023-05-02T07:12:17.964Z,33.14
2023-05-02T07:13:17.852Z,33.14
2023-05-02T07:14:17.950Z,33.15
2023-05-02T07:15:17.892Z,33.15
2023-05-02T07:16:17.856Z,33.44
2023-05-02T07:17:17.973Z,33.33
2023-05-02T07:18:17.993Z,33.51
2023-05-02T07:19:17.988Z,33.69
2023-05-02T07:20:17.905Z,33.40
2023-05-02T07:21:17.889Z,33.62
2023-05-02T07:22:18.012Z,33.47
2023-05-02T07:23:18.026Z,33.98
2023-05-02T07:24:18.009Z,33.94
2023-05-02T07:25:17.877Z,33.98
2023-05-02T07:26:17.983Z,34.08
2023-05-02T07:27:17.973Z,33.76
2023-05-02T07:28:17.982Z,33.84
2023-05-02T07:29:18.112Z,33.78
2023-05-02T07:30:18.507Z,33.89
2023-05-02T07:31:18.901Z,33.92
2023-05-02T07:32:18.076Z,33.88
2023-05-02T07:33:18.095Z,34.19
2023-05-02T07:34:18.032Z,34.36
2023-05-02T07:35:21.329Z,34.05
2023-05-02T07:36:18.132Z,34.12
2023-05-02T07:37:18.149Z,34.75
2023-05-02T07:38:18.043Z,34.24
2023-05-02T07:39:18.071Z,34.06
2023-05-02T07:40:18.066Z,33.62
2023-05-02T07:41:18.622Z,34.10
2023-05-02T07:42:18.082Z,33.77
2023-05-02T07:43:18.055Z,33.63
2023-05-02T07:44:18.075Z,33.57
2023-05-02T07:45:18.118Z,33.38
2023-05-02T07:46:18.029Z,33.18
2023-05-02T07:47:18.526Z,33.08
2023-05-02T07:48:18.532Z,32.94
2023-05-02T07:49:18.025Z,33.08
2023-05-02T07:50:18.006Z,33.15
2023-05-02T07:51:18.010Z,33.06
2023-05-02T07:52:20.710Z,32.92
2023-05-02T07:53:18.494Z,33.01
2023-05-02T07:54:17.969Z,32.86
2023-05-02T07:55:17.970Z,33.26
2023-05-02T07:56:17.940Z,32.91
2023-05-02T07:57:18.196Z,32.97
2023-05-02T07:58:23.097Z,32.91
2023-05-02T07:59:17.990Z,33.03
2023-05-02T08:00:18.014Z,32.86
2023-05-02T08:01:17.923Z,32.89
2023-05-02T08:02:18.009Z,32.82
2023-05-02T08:03:18.001Z,32.87
2023-05-02T08:04:18.187Z,32.71
2023-05-02T08:05:18.091Z,32.75
2023-05-02T08:06:17.983Z,32.75
2023-05-02T08:07:19.467Z,32.67
2023-05-02T08:08:17.859Z,32.65
2023-05-02T08:09:17.842Z,32.61
2023-05-02T08:10:17.877Z,32.61
2023-05-02T08:11:17.947Z,32.64
2023-05-02T08:12:17.953Z,32.64
2023-05-02T08:13:17.939Z,32.73
2023-05-02T08:14:17.914Z,32.92
2023-05-02T08:15:17.928Z,32.78
2023-05-02T08:16:17.955Z,32.71
2023-05-02T08:17:17.934Z,32.69
2023-05-02T08:18:18.538Z,32.74
2023-05-02T08:19:17.996Z,32.78
2023-05-02T08:20:17.929Z,32.78
2023-05-02T08:21:17.940Z,32.83
2023-05-02T08:22:18.156Z,32.68
2023-05-02T08:23:18.013Z,32.78
2023-05-02T08:24:18.016Z,32.68
2023-05-02T08:25:18.006Z,32.87
2023-05-02T08:26:18.034Z,32.87
2023-05-02T08:27:19.099Z,32.88
2023-05-02T08:28:18.110Z,32.95
2023-05-02T08:29:18.539Z,32.76
2023-05-02T08:30:18.545Z,32.21
2023-05-02T08:31:18.201Z,31.94
2023-05-02T08:32:18.239Z,31.77
2023-05-02T08:33:18.113Z,31.67
2023-05-02T08:34:18.239Z,31.69
2023-05-02T08:35:18.252Z,31.67
2023-05-02T08:36:18.246Z,31.54
2023-05-02T08:37:18.380Z,31.48
2023-05-02T08:38:18.356Z,31.45
2023-05-02T08:39:18.365Z,31.54
2023-05-02T08:40:27.114Z,31.61
2023-05-02T08:41:20.253Z,32.22
2023-05-02T08:42:18.392Z,32.59
2023-05-02T08:43:18.506Z,32.86
2023-05-02T08:44:18.425Z,32.86
2023-05-02T08:45:19.130Z,32.79
2023-05-02T08:46:18.425Z,32.86
2023-05-02T08:47:18.441Z,33.01
2023-05-02T08:48:18.457Z,33.36
2023-05-02T08:49:18.354Z,33.36
2023-05-02T08:50:18.343Z,33.24
2023-05-02T08:52:18.354Z,33.03
2023-05-02T08:53:18.592Z,33.05
2023-05-02T08:54:18.377Z,33.10
2023-05-02T08:55:18.448Z,33.08
2023-05-02T08:56:18.449Z,32.82
2023-05-02T08:57:18.459Z,33.07
2023-05-02T08:58:18.455Z,32.79
2023-05-02T08:59:18.474Z,32.81
2023-05-02T09:00:18.499Z,32.75
2023-05-02T09:01:18.548Z,32.78
2023-05-02T09:02:18.547Z,32.57
2023-05-02T09:03:19.820Z,33.03
2023-05-02T09:04:18.570Z,32.85
2023-05-02T09:05:18.572Z,32.74
2023-05-02T09:06:18.618Z,32.54
2023-05-02T09:07:18.475Z,32.44
2023-05-02T09:08:19.096Z,32.39
2023-05-02T09:09:19.246Z,32.42
2023-05-02T09:10:18.651Z,32.61
2023-05-02T09:11:18.500Z,32.67
2023-05-02T09:12:18.502Z,33.07
2023-05-02T09:13:18.454Z,32.77
2023-05-02T09:14:18.468Z,32.86
2023-05-02T09:15:20.910Z,32.86
2023-05-02T09:16:18.696Z,33.04
2023-05-02T09:17:19.059Z,33.08
2023-05-02T09:18:18.726Z,33.11
2023-05-02T09:19:18.768Z,33.20
2023-05-02T09:20:18.830Z,33.13
2023-05-02T09:21:20.722Z,33.16
2023-05-02T09:22:18.942Z,33.12
2023-05-02T09:23:19.035Z,33.00
2023-05-02T09:24:19.164Z,33.10
2023-05-02T09:25:19.150Z,33.02
2023-05-02T09:26:19.214Z,32.94
2023-05-02T09:27:19.313Z,33.05
2023-05-02T09:28:19.420Z,33.10
2023-05-02T09:29:19.430Z,32.96
2023-05-02T09:30:19.614Z,32.99
2023-05-02T09:31:37.494Z,32.95
2023-05-02T09:32:20.705Z,32.98
2023-05-02T09:33:19.572Z,32.78
2023-05-02T09:34:19.517Z,32.68
2023-05-02T09:35:19.496Z,32.57
2023-05-02T09:36:19.691Z,32.54
2023-05-02T09:37:19.446Z,32.43
2023-05-02T09:38:19.449Z,32.26
2023-05-02T09:39:19.386Z,32.23
2023-05-02T09:40:19.566Z,32.12
2023-05-02T09:41:19.392Z,32.11
2023-05-02T09:42:19.536Z,32.07
2023-05-02T09:43:19.511Z,31.88
2023-05-02T09:44:19.652Z,31.91
2023-05-02T09:45:19.701Z,31.88
2023-05-02T09:46:20.106Z,31.79
2023-05-02T09:47:19.757Z,31.78
2023-05-02T09:48:20.137Z,31.77
2023-05-02T09:49:19.869Z,31.73
2023-05-02T09:50:19.899Z,31.67
2023-05-02T09:51:20.046Z,31.66
2023-05-02T09:52:20.050Z,31.57
2023-05-02T09:53:20.063Z,31.59
2023-05-02T09:54:20.118Z,31.57
2023-05-02T09:55:20.177Z,31.48
2023-05-02T09:56:20.234Z,31.50
2023-05-02T09:57:20.327Z,31.45
2023-05-02T09:58:20.302Z,31.48
2023-05-02T09:59:20.569Z,31.39
2023-05-02T10:00:20.379Z,31.42
2023-05-02T10:01:20.456Z,31.45
2023-05-02T10:02:20.456Z,31.41
2023-05-02T10:03:20.467Z,31.39
2023-05-02T10:04:20.530Z,31.39
2023-05-02T10:05:20.505Z,31.29
2023-05-02T10:06:20.600Z,31.29
2023-05-02T10:07:20.572Z,31.30
2023-05-02T10:08:20.588Z,31.26
2023-05-02T10:09:21.790Z,31.19
2023-05-02T10:10:20.641Z,31.22
2023-05-02T10:11:20.692Z,31.27
2023-05-02T10:12:20.707Z,31.22
2023-05-02T10:13:20.759Z,31.17
2023-05-02T10:14:20.817Z,31.15
2023-05-02T10:15:20.864Z,31.11
2023-05-02T10:16:21.075Z,31.07
2023-05-02T10:17:20.989Z,31.02
2023-05-02T10:18:21.056Z,31.01
2023-05-02T10:19:21.100Z,30.99
2023-05-02T10:20:21.165Z,30.88
2023-05-02T10:21:21.281Z,30.94
2023-05-02T10:22:21.283Z,30.91
2023-05-02T10:23:21.345Z,30.87
2023-05-02T10:24:21.455Z,30.91
2023-05-02T10:25:21.462Z,30.89
2023-05-02T10:26:21.486Z,30.87
2023-05-02T10:27:22.150Z,30.83
2023-05-02T10:28:22.044Z,30.82
2023-05-02T10:29:21.697Z,30.71
2023-05-02T10:30:21.710Z,30.58
2023-05-02T10:31:21.856Z,30.58
2023-05-02T10:32:21.883Z,30.49
2023-05-02T10:33:21.901Z,30.45
2023-05-02T10:34:21.953Z,30.35
2023-05-02T10:35:22.001Z,30.37
2023-05-02T10:36:22.026Z,30.29
2023-05-02T10:37:22.113Z,30.37
2023-05-02T10:38:23.347Z,30.34
2023-05-02T10:39:22.231Z,30.21
2023-05-02T10:40:22.224Z,30.36
2023-05-02T10:41:22.244Z,30.46
2023-05-02T10:42:22.195Z,30.28
2023-05-02T10:43:22.339Z,30.30
2023-05-02T10:44:22.356Z,30.47
2023-05-02T10:45:22.562Z,30.44
2023-05-02T10:46:22.315Z,30.24
2023-05-02T10:47:22.755Z,30.14
2023-05-02T10:48:22.651Z,30.04
2023-05-02T10:49:22.405Z,30.24
2023-05-02T10:50:22.398Z,30.07
2023-05-02T10:51:22.551Z,29.93
2023-05-02T10:52:22.444Z,29.93
2023-05-02T10:53:22.370Z,29.82
2023-05-02T10:54:22.387Z,30.25
2023-05-02T10:55:22.460Z,29.78
2023-05-02T10:56:22.431Z,29.72
2023-05-02T10:57:22.442Z,29.71
2023-05-02T10:58:22.562Z,29.66
2023-05-02T10:59:22.477Z,29.97
2023-05-02T11:00:22.519Z,29.95
2023-05-02T11:01:22.706Z,30.08
2023-05-02T11:02:22.587Z,29.96
2023-05-02T11:03:22.623Z,29.76
2023-05-02T11:04:22.554Z,29.87
2023-05-02T11:05:22.634Z,29.70
2023-05-02T11:06:22.695Z,29.73
2023-05-02T11:07:22.679Z,29.86
2023-05-02T11:08:23.375Z,29.76
2023-05-02T11:09:22.619Z,29.74
2023-05-02T11:10:22.623Z,29.81
2023-05-02T11:11:22.646Z,29.57
2023-05-02T11:12:22.644Z,29.71
2023-05-02T11:13:23.090Z,29.94
2023-05-02T11:14:22.757Z,29.81
2023-05-02T11:15:22.719Z,29.83
2023-05-02T11:16:22.811Z,29.80
2023-05-02T11:17:22.725Z,29.67
2023-05-02T11:18:22.732Z,29.81
2023-05-02T11:19:22.730Z,29.94
2023-05-02T11:20:22.732Z,29.83
2023-05-02T11:21:23.052Z,29.84
2023-05-02T11:22:22.828Z,29.80
2023-05-02T11:23:23.091Z,29.77
2023-05-02T11:24:22.834Z,29.67
2023-05-02T11:25:23.098Z,29.69
2023-05-02T11:26:22.854Z,29.46
2023-05-02T11:27:23.474Z,29.50
2023-05-02T11:28:22.899Z,29.27
2023-05-02T11:29:22.855Z,29.62
2023-05-02T11:30:22.869Z,29.40
2023-05-02T11:31:22.959Z,29.54
2023-05-02T11:32:23.184Z,29.70
2023-05-02T11:33:22.918Z,29.72
2023-05-02T11:34:22.902Z,29.75
2023-05-02T11:35:22.911Z,29.75
2023-05-02T11:36:22.955Z,29.71
2023-05-02T11:37:22.975Z,29.66
2023-05-02T11:38:22.972Z,29.67
2023-05-02T11:39:22.998Z,29.62
2023-05-02T11:40:23.079Z,29.62
2023-05-02T11:41:23.006Z,29.56
2023-05-02T11:42:23.037Z,29.56
2023-05-02T11:43:23.103Z,29.59
2023-05-02T11:44:23.071Z,29.56
2023-05-02T11:45:23.035Z,29.55
2023-05-02T11:46:23.209Z,29.58
2023-05-02T11:47:23.089Z,29.54
2023-05-02T11:48:23.065Z,29.55
2023-05-02T11:49:23.130Z,29.55
2023-05-02T11:50:23.233Z,29.51
2023-05-02T11:51:23.126Z,29.49
2023-05-02T11:52:23.059Z,29.51
2023-05-02T11:53:23.263Z,29.52
2023-05-02T11:54:23.143Z,29.51
2023-05-02T11:55:23.104Z,29.47
2023-05-02T11:56:23.102Z,29.45
2023-05-02T11:57:23.089Z,29.44
2023-05-02T11:58:23.109Z,29.45
2023-05-02T11:59:23.577Z,29.48
2023-05-02T12:00:23.166Z,29.47
2023-05-02T12:01:23.200Z,29.45
2023-05-02T12:02:23.328Z,29.46
2023-05-02T12:03:23.261Z,29.43
2023-05-02T12:04:23.189Z,29.44
2023-05-02T12:05:23.256Z,29.39
2023-05-02T12:06:23.385Z,29.43
2023-05-02T12:07:23.237Z,29.34
2023-05-02T12:08:23.222Z,29.40
2023-05-02T12:09:23.278Z,29.38
2023-05-02T12:10:23.255Z,29.40
2023-05-02T12:11:23.266Z,29.41
2023-05-02T12:12:23.299Z,29.40
2023-05-02T12:13:23.248Z,29.39
2023-05-02T12:14:23.381Z,29.43
2023-05-02T12:15:23.423Z,29.37
2023-05-02T12:16:23.560Z,29.36
2023-05-02T12:17:23.490Z,29.29
2023-05-02T12:18:23.519Z,29.29
2023-05-02T12:19:23.442Z,29.28
2023-05-02T12:20:23.581Z,29.30
2023-05-02T12:21:23.535Z,29.31
2023-05-02T12:22:23.537Z,29.38
2023-05-02T12:23:23.516Z,29.40
2023-05-02T12:24:23.506Z,29.45
2023-05-02T12:25:23.552Z,29.47
2023-05-02T12:26:23.597Z,29.44
2023-05-02T12:27:23.568Z,29.48
2023-05-02T12:28:23.534Z,29.53
2023-05-02T12:29:23.578Z,29.43
2023-05-02T12:30:23.582Z,29.45
2023-05-02T12:31:23.677Z,29.40
2023-05-02T12:32:24.499Z,29.44
2023-05-02T12:33:23.621Z,29.47
2023-05-02T12:34:23.571Z,29.34
2023-05-02T12:35:23.621Z,29.39
2023-05-02T12:36:23.617Z,29.40
2023-05-02T12:37:23.632Z,29.40
2023-05-02T12:38:23.700Z,29.35
2023-05-02T12:39:23.755Z,29.32
2023-05-02T12:40:23.753Z,29.35
2023-05-02T12:41:23.985Z,29.35
2023-05-02T12:42:23.802Z,29.34
2023-05-02T12:43:23.890Z,29.37
2023-05-02T12:44:23.892Z,29.32
2023-05-02T12:45:23.943Z,29.34
2023-05-02T12:46:24.104Z,29.34
2023-05-02T12:47:24.292Z,29.35
2023-05-02T12:48:24.126Z,29.32
2023-05-02T12:49:24.176Z,29.34
2023-05-02T12:50:24.218Z,29.34
2023-05-02T12:51:24.354Z,29.31
2023-05-02T12:52:24.358Z,29.37
2023-05-02T12:53:24.392Z,29.30